Terminal Aerodrome Forecast
Issued by NWS Grand Forks, ND

Home | Current Version | Previous Version | Graphics & Text | Print | Product List | Glossary On
Versions: 1 2 3 4 5 6 7 8 9 10 11 12 13 14 15 16
000
FTUS43 KFGF 241700
TAFGFK
TAF
KGFK 241729Z 2418/2518 16016G24KT P6SM OVC011
     FM242000 15020G30KT P6SM -RA OVC015
     FM242200 15022G32KT P6SM BKN025
     FM250700 24015G22KT P6SM OVC015
     FM250900 30014G20KT 2SM -SN OVC007
     FM251500 32029G37KT 4SM -SN OVC015=

USA.gov is the U.S. government's official web portal to all federal, state and local government web resources and services.